BBB077 ESSL-EDDH
Flight info
| Callsign | BBB077 |
|---|---|
| Flight time | 1h 7m |
| Altitude | 38000 |
| Route | ELPAX N872 NILEN DCT MAXEL N850 MICOS/N0435F280 N850 BOGMU BOGMU5A |
| Aircraft | A21N/M-SDE3FGHIRWY/LB1 |
Departure
| Time | 2026-05-05 16:52 |
|---|---|
| Airport | Linköping City Airport (ESSL) |
Arrival
| Time | 2026-05-05 17:59 |
|---|---|
| Airport | Hamburg Helmut Schmidt Airport (EDDH) |
| Time | Latitude | Longitude | Altitude | Speed | Heading |
|---|---|---|---|---|---|
| 2026-05-05 16:22 | 58.40810 | 15.65777 | 151 ft | 0 kts | 202° |
| 2026-05-05 16:38 | 58.40811 | 15.65777 | 151 ft | 0 kts | 202° |
| 2026-05-05 16:39 | 58.40823 | 15.65788 | 151 ft | 2 kts | 216° |
| 2026-05-05 16:39 | 58.40834 | 15.65808 | 151 ft | 2 kts | 239° |
| 2026-05-05 16:39 | 58.40839 | 15.65835 | 151 ft | 2 kts | 261° |
| 2026-05-05 16:39 | 58.40839 | 15.65863 | 151 ft | 2 kts | 283° |
| 2026-05-05 16:40 | 58.40837 | 15.65879 | 151 ft | 1 kts | 296° |
| 2026-05-05 16:40 | 58.40834 | 15.65890 | 151 ft | 0 kts | 297° |
| 2026-05-05 16:44 | 58.40834 | 15.65889 | 151 ft | 0 kts | 297° |
| 2026-05-05 16:44 | 58.40847 | 15.65846 | 151 ft | 6 kts | 303° |
| 2026-05-05 16:45 | 58.40871 | 15.65814 | 151 ft | 4 kts | 7° |
| 2026-05-05 16:45 | 58.40891 | 15.65850 | 151 ft | 4 kts | 51° |
| 2026-05-05 16:45 | 58.40915 | 15.65907 | 151 ft | 6 kts | 51° |
| 2026-05-05 16:45 | 58.40944 | 15.65977 | 151 ft | 7 kts | 56° |
| 2026-05-05 16:46 | 58.40967 | 15.66077 | 151 ft | 9 kts | 71° |
| 2026-05-05 16:46 | 58.40990 | 15.66208 | 152 ft | 11 kts | 74° |
| 2026-05-05 16:46 | 58.40986 | 15.66372 | 152 ft | 14 kts | 110° |
| 2026-05-05 16:46 | 58.40946 | 15.66566 | 154 ft | 16 kts | 111° |
| 2026-05-05 16:47 | 58.40899 | 15.66783 | 156 ft | 18 kts | 113° |
| 2026-05-05 16:47 | 58.40848 | 15.67008 | 160 ft | 18 kts | 112° |
| 2026-05-05 16:47 | 58.40799 | 15.67242 | 163 ft | 19 kts | 112° |
| 2026-05-05 16:47 | 58.40749 | 15.67477 | 167 ft | 19 kts | 112° |
| 2026-05-05 16:48 | 58.40698 | 15.67718 | 170 ft | 20 kts | 112° |
| 2026-05-05 16:48 | 58.40644 | 15.67968 | 173 ft | 20 kts | 112° |
| 2026-05-05 16:48 | 58.40589 | 15.68228 | 175 ft | 22 kts | 112° |
| 2026-05-05 16:48 | 58.40528 | 15.68506 | 176 ft | 23 kts | 112° |
| 2026-05-05 16:49 | 58.40465 | 15.68806 | 176 ft | 24 kts | 111° |
| 2026-05-05 16:49 | 58.40398 | 15.69118 | 176 ft | 26 kts | 112° |
| 2026-05-05 16:49 | 58.40329 | 15.69446 | 177 ft | 26 kts | 111° |
| 2026-05-05 16:49 | 58.40260 | 15.69764 | 178 ft | 25 kts | 113° |
| 2026-05-05 16:50 | 58.40195 | 15.70067 | 179 ft | 24 kts | 112° |
| 2026-05-05 16:50 | 58.40130 | 15.70356 | 179 ft | 23 kts | 117° |
| 2026-05-05 16:50 | 58.40075 | 15.70557 | 179 ft | 12 kts | 128° |
| 2026-05-05 16:50 | 58.40060 | 15.70627 | 179 ft | 2 kts | 58° |
| 2026-05-05 16:51 | 58.40074 | 15.70623 | 179 ft | 2 kts | 310° |
| 2026-05-05 16:51 | 58.40084 | 15.70577 | 179 ft | 4 kts | 292° |
| 2026-05-05 16:51 | 58.40107 | 15.70471 | 179 ft | 30 kts | 292° |
| 2026-05-05 16:51 | 58.40289 | 15.69622 | 178 ft | 105 kts | 292° |
| 2026-05-05 16:52 | 58.40642 | 15.67947 | 236 ft | 158 kts | 292° |
| 2026-05-05 16:52 | 58.41055 | 15.65982 | 877 ft | 162 kts | 293° |
| 2026-05-05 16:52 | 58.41479 | 15.64053 | 1608 ft | 160 kts | 294° |
| 2026-05-05 16:52 | 58.41930 | 15.62024 | 1992 ft | 175 kts | 294° |
| 2026-05-05 16:53 | 58.42429 | 15.59811 | 2366 ft | 191 kts | 295° |
| 2026-05-05 16:53 | 58.42976 | 15.57417 | 2730 ft | 209 kts | 295° |
| 2026-05-05 16:53 | 58.43593 | 15.54760 | 3156 ft | 226 kts | 295° |
| 2026-05-05 16:53 | 58.44220 | 15.52065 | 4154 ft | 219 kts | 295° |
| 2026-05-05 16:54 | 58.44828 | 15.49465 | 4957 ft | 220 kts | 295° |
| 2026-05-05 16:54 | 58.45452 | 15.46815 | 5724 ft | 223 kts | 295° |
| 2026-05-05 16:54 | 58.46086 | 15.44146 | 6500 ft | 225 kts | 295° |
| 2026-05-05 16:54 | 58.46652 | 15.41392 | 7283 ft | 227 kts | 282° |
| 2026-05-05 16:55 | 58.46523 | 15.38425 | 8089 ft | 232 kts | 251° |
| 2026-05-05 16:55 | 58.45565 | 15.35967 | 8883 ft | 241 kts | 223° |
| 2026-05-05 16:55 | 58.44104 | 15.34360 | 9626 ft | 252 kts | 201° |
| 2026-05-05 16:55 | 58.42378 | 15.33824 | 10091 ft | 270 kts | 190° |
| 2026-05-05 16:56 | 58.40449 | 15.33495 | 10484 ft | 288 kts | 190° |
| 2026-05-05 16:56 | 58.38403 | 15.33150 | 10846 ft | 305 kts | 191° |
| 2026-05-05 16:56 | 58.36250 | 15.32754 | 11181 ft | 322 kts | 191° |
| 2026-05-05 16:56 | 58.33944 | 15.32299 | 11497 ft | 339 kts | 191° |
| 2026-05-05 16:57 | 58.31553 | 15.31814 | 11902 ft | 351 kts | 192° |
| 2026-05-05 16:57 | 58.29131 | 15.31325 | 12563 ft | 354 kts | 192° |
| 2026-05-05 16:57 | 58.26715 | 15.30836 | 13319 ft | 354 kts | 193° |
| 2026-05-05 16:57 | 58.24255 | 15.30333 | 14046 ft | 354 kts | 194° |
| 2026-05-05 16:58 | 58.21851 | 15.29831 | 14756 ft | 355 kts | 194° |
| 2026-05-05 16:58 | 58.19386 | 15.29311 | 15383 ft | 357 kts | 194° |
| 2026-05-05 16:58 | 58.16905 | 15.28791 | 15995 ft | 360 kts | 194° |
| 2026-05-05 16:58 | 58.14429 | 15.28273 | 16561 ft | 362 kts | 194° |
| 2026-05-05 16:59 | 58.11933 | 15.27670 | 17107 ft | 361 kts | 199° |
| 2026-05-05 16:59 | 58.09573 | 15.26296 | 17647 ft | 354 kts | 210° |
| 2026-05-05 16:59 | 58.07456 | 15.24093 | 18163 ft | 348 kts | 220° |
| 2026-05-05 16:59 | 58.05527 | 15.21318 | 18685 ft | 348 kts | 223° |
| 2026-05-05 17:00 | 58.03640 | 15.18510 | 19169 ft | 351 kts | 224° |
| 2026-05-05 17:00 | 58.01711 | 15.15630 | 19519 ft | 357 kts | 224° |
| 2026-05-05 17:00 | 57.99755 | 15.12711 | 19894 ft | 362 kts | 223° |
| 2026-05-05 17:00 | 57.97780 | 15.09771 | 20353 ft | 365 kts | 223° |
| 2026-05-05 17:01 | 57.95799 | 15.06831 | 20798 ft | 367 kts | 223° |
| 2026-05-05 17:01 | 57.93792 | 15.03855 | 21226 ft | 369 kts | 223° |
| 2026-05-05 17:01 | 57.91787 | 15.00887 | 21652 ft | 371 kts | 223° |
| 2026-05-05 17:01 | 57.89761 | 14.97890 | 22060 ft | 373 kts | 223° |
| 2026-05-05 17:02 | 57.87718 | 14.94875 | 22424 ft | 376 kts | 223° |
| 2026-05-05 17:02 | 57.85653 | 14.91831 | 22824 ft | 378 kts | 223° |
| 2026-05-05 17:02 | 57.83592 | 14.88800 | 23193 ft | 381 kts | 223° |
| 2026-05-05 17:02 | 57.81501 | 14.85726 | 23536 ft | 383 kts | 223° |
| 2026-05-05 17:03 | 57.79408 | 14.82655 | 23893 ft | 386 kts | 223° |
| 2026-05-05 17:03 | 57.77305 | 14.79572 | 24254 ft | 387 kts | 223° |
| 2026-05-05 17:03 | 57.75168 | 14.76446 | 24596 ft | 389 kts | 223° |
| 2026-05-05 17:03 | 57.73045 | 14.73344 | 24940 ft | 391 kts | 223° |
| 2026-05-05 17:04 | 57.70907 | 14.70227 | 25251 ft | 394 kts | 223° |
| 2026-05-05 17:04 | 57.68734 | 14.67062 | 25563 ft | 396 kts | 223° |
| 2026-05-05 17:04 | 57.66571 | 14.63917 | 25869 ft | 398 kts | 223° |
| 2026-05-05 17:04 | 57.64397 | 14.60762 | 26166 ft | 400 kts | 223° |
| 2026-05-05 17:05 | 57.62215 | 14.57597 | 26454 ft | 401 kts | 223° |
| 2026-05-05 17:05 | 57.60009 | 14.54403 | 26726 ft | 403 kts | 223° |
| 2026-05-05 17:05 | 57.57798 | 14.51210 | 26995 ft | 405 kts | 223° |
| 2026-05-05 17:05 | 57.55559 | 14.47981 | 27345 ft | 405 kts | 223° |
| 2026-05-05 17:06 | 57.53358 | 14.44813 | 27745 ft | 404 kts | 223° |
| 2026-05-05 17:06 | 57.51141 | 14.41628 | 28149 ft | 403 kts | 223° |
| 2026-05-05 17:06 | 57.48943 | 14.38472 | 28541 ft | 402 kts | 223° |
| 2026-05-05 17:06 | 57.46743 | 14.35319 | 28914 ft | 401 kts | 223° |
| 2026-05-05 17:07 | 57.44545 | 14.32175 | 29293 ft | 401 kts | 222° |
| 2026-05-05 17:07 | 57.42353 | 14.29042 | 29679 ft | 400 kts | 223° |
| 2026-05-05 17:07 | 57.40149 | 14.25897 | 30066 ft | 400 kts | 222° |
| 2026-05-05 17:07 | 57.37957 | 14.22771 | 30461 ft | 399 kts | 222° |
| 2026-05-05 17:08 | 57.35755 | 14.19640 | 30853 ft | 398 kts | 222° |
| 2026-05-05 17:08 | 57.33593 | 14.16566 | 31223 ft | 397 kts | 222° |
| 2026-05-05 17:08 | 57.31417 | 14.13482 | 31565 ft | 397 kts | 222° |
| 2026-05-05 17:08 | 57.29216 | 14.10365 | 31936 ft | 396 kts | 222° |
| 2026-05-05 17:09 | 57.27048 | 14.07301 | 32285 ft | 395 kts | 222° |
| 2026-05-05 17:09 | 57.24880 | 14.04239 | 32604 ft | 396 kts | 222° |
| 2026-05-05 17:09 | 57.22683 | 14.01141 | 32939 ft | 395 kts | 222° |
| 2026-05-05 17:09 | 57.20527 | 13.98107 | 33277 ft | 395 kts | 222° |
| 2026-05-05 17:10 | 57.18337 | 13.95030 | 33604 ft | 394 kts | 222° |
| 2026-05-05 17:10 | 57.16172 | 13.91993 | 33953 ft | 393 kts | 222° |
| 2026-05-05 17:10 | 57.13995 | 13.88942 | 34276 ft | 393 kts | 222° |
| 2026-05-05 17:10 | 57.11848 | 13.85942 | 34568 ft | 392 kts | 222° |
| 2026-05-05 17:11 | 57.09665 | 13.82894 | 34840 ft | 392 kts | 222° |
| 2026-05-05 17:11 | 57.07527 | 13.79913 | 35055 ft | 391 kts | 222° |
| 2026-05-05 17:11 | 57.05374 | 13.76912 | 35231 ft | 391 kts | 222° |
| 2026-05-05 17:11 | 57.03211 | 13.73903 | 35396 ft | 392 kts | 222° |
| 2026-05-05 17:12 | 57.01037 | 13.70881 | 35558 ft | 393 kts | 222° |
| 2026-05-05 17:12 | 56.98853 | 13.67854 | 35704 ft | 394 kts | 222° |
| 2026-05-05 17:12 | 56.96679 | 13.64845 | 35848 ft | 395 kts | 221° |
| 2026-05-05 17:12 | 56.94493 | 13.61823 | 35984 ft | 395 kts | 221° |
| 2026-05-05 17:13 | 56.92297 | 13.58794 | 36118 ft | 396 kts | 221° |
| 2026-05-05 17:13 | 56.90123 | 13.55797 | 36289 ft | 397 kts | 221° |
| 2026-05-05 17:13 | 56.87910 | 13.52751 | 36454 ft | 399 kts | 221° |
| 2026-05-05 17:13 | 56.85697 | 13.49712 | 36620 ft | 400 kts | 221° |
| 2026-05-05 17:14 | 56.83482 | 13.46672 | 36800 ft | 401 kts | 221° |
| 2026-05-05 17:14 | 56.81254 | 13.43621 | 36955 ft | 402 kts | 221° |
| 2026-05-05 17:14 | 56.79024 | 13.40573 | 37095 ft | 404 kts | 221° |
| 2026-05-05 17:14 | 56.76781 | 13.37513 | 37227 ft | 405 kts | 221° |
| 2026-05-05 17:15 | 56.74520 | 13.34524 | 37382 ft | 407 kts | 218° |
| 2026-05-05 17:15 | 56.72138 | 13.31700 | 37532 ft | 410 kts | 215° |
| 2026-05-05 17:15 | 56.69685 | 13.29115 | 37667 ft | 412 kts | 212° |
| 2026-05-05 17:15 | 56.67153 | 13.26667 | 37809 ft | 413 kts | 212° |
| 2026-05-05 17:16 | 56.62100 | 13.21739 | 37887 ft | 415 kts | 212° |
| 2026-05-05 17:16 | 56.57026 | 13.16809 | 37895 ft | 416 kts | 212° |
| 2026-05-05 17:17 | 56.51935 | 13.11885 | 37902 ft | 416 kts | 212° |
| 2026-05-05 17:17 | 56.46841 | 13.06976 | 37910 ft | 416 kts | 212° |
| 2026-05-05 17:18 | 56.41770 | 13.02105 | 37916 ft | 416 kts | 212° |
| 2026-05-05 17:18 | 56.36659 | 12.97211 | 37912 ft | 416 kts | 212° |
| 2026-05-05 17:19 | 56.31575 | 12.92357 | 37903 ft | 416 kts | 212° |
| 2026-05-05 17:19 | 56.26447 | 12.87477 | 37919 ft | 416 kts | 212° |
| 2026-05-05 17:20 | 56.21343 | 12.82637 | 37920 ft | 417 kts | 212° |
| 2026-05-05 17:20 | 56.16262 | 12.77834 | 37927 ft | 417 kts | 212° |
| 2026-05-05 17:21 | 56.11135 | 12.72999 | 37918 ft | 417 kts | 212° |
| 2026-05-05 17:22 | 56.03449 | 12.65778 | 37929 ft | 418 kts | 212° |
| 2026-05-05 17:22 | 55.98325 | 12.60984 | 37921 ft | 418 kts | 212° |
| 2026-05-05 17:23 | 55.93195 | 12.56199 | 37911 ft | 418 kts | 212° |
| 2026-05-05 17:23 | 55.88050 | 12.51414 | 37904 ft | 417 kts | 212° |
| 2026-05-05 17:24 | 55.82919 | 12.46654 | 37902 ft | 417 kts | 212° |
| 2026-05-05 17:24 | 55.77805 | 12.41924 | 37901 ft | 417 kts | 212° |
| 2026-05-05 17:25 | 55.72647 | 12.37169 | 37904 ft | 417 kts | 212° |
| 2026-05-05 17:25 | 55.67506 | 12.32445 | 37905 ft | 418 kts | 211° |
| 2026-05-05 17:26 | 55.62363 | 12.27732 | 37911 ft | 418 kts | 211° |
| 2026-05-05 17:26 | 55.57244 | 12.23054 | 37910 ft | 419 kts | 211° |
| 2026-05-05 17:27 | 55.52076 | 12.18346 | 37909 ft | 419 kts | 211° |
| 2026-05-05 17:27 | 55.46902 | 12.13646 | 37913 ft | 419 kts | 211° |
| 2026-05-05 17:28 | 55.41741 | 12.08974 | 37903 ft | 419 kts | 211° |
| 2026-05-05 17:28 | 55.36568 | 12.04303 | 37898 ft | 418 kts | 211° |
| 2026-05-05 17:29 | 55.31428 | 11.99675 | 37900 ft | 418 kts | 211° |
| 2026-05-05 17:29 | 55.26267 | 11.95040 | 37901 ft | 418 kts | 211° |
| 2026-05-05 17:30 | 55.21111 | 11.90400 | 37894 ft | 418 kts | 212° |
| 2026-05-05 17:30 | 55.16070 | 11.85365 | 37893 ft | 418 kts | 213° |
| 2026-05-05 17:31 | 55.11055 | 11.80364 | 37902 ft | 418 kts | 213° |
| 2026-05-05 17:31 | 55.06017 | 11.75348 | 37900 ft | 417 kts | 213° |
| 2026-05-05 17:32 | 55.01024 | 11.70384 | 37899 ft | 417 kts | 213° |
| 2026-05-05 17:32 | 54.95996 | 11.65399 | 37909 ft | 417 kts | 213° |
| 2026-05-05 17:32 | 54.93464 | 11.62895 | 37724 ft | 416 kts | 213° |
| 2026-05-05 17:33 | 54.90949 | 11.60411 | 37487 ft | 415 kts | 213° |
| 2026-05-05 17:33 | 54.88464 | 11.57960 | 37264 ft | 414 kts | 213° |
| 2026-05-05 17:33 | 54.85969 | 11.55502 | 37003 ft | 414 kts | 213° |
| 2026-05-05 17:33 | 54.83477 | 11.53050 | 36651 ft | 414 kts | 213° |
| 2026-05-05 17:34 | 54.80964 | 11.50579 | 36223 ft | 415 kts | 213° |
| 2026-05-05 17:34 | 54.78450 | 11.48113 | 35716 ft | 417 kts | 213° |
| 2026-05-05 17:34 | 54.75929 | 11.45644 | 35073 ft | 420 kts | 214° |
| 2026-05-05 17:34 | 54.73410 | 11.43181 | 34272 ft | 422 kts | 214° |
| 2026-05-05 17:35 | 54.70854 | 11.40663 | 33482 ft | 422 kts | 214° |
| 2026-05-05 17:35 | 54.68368 | 11.38165 | 32734 ft | 421 kts | 215° |
| 2026-05-05 17:35 | 54.65847 | 11.35622 | 31985 ft | 419 kts | 215° |
| 2026-05-05 17:35 | 54.63334 | 11.33089 | 31230 ft | 418 kts | 214° |
| 2026-05-05 17:36 | 54.60840 | 11.30587 | 30455 ft | 417 kts | 214° |
| 2026-05-05 17:36 | 54.58353 | 11.28094 | 29655 ft | 416 kts | 214° |
| 2026-05-05 17:36 | 54.55868 | 11.25606 | 28863 ft | 416 kts | 214° |
| 2026-05-05 17:36 | 54.53356 | 11.23098 | 28028 ft | 416 kts | 214° |
| 2026-05-05 17:37 | 54.50856 | 11.20606 | 27177 ft | 417 kts | 214° |
| 2026-05-05 17:37 | 54.49203 | 11.18961 | 26640 ft | 417 kts | 214° |
| 2026-05-05 17:37 | 54.45892 | 11.15676 | 25901 ft | 410 kts | 214° |
| 2026-05-05 17:37 | 54.43441 | 11.13247 | 25350 ft | 406 kts | 213° |
| 2026-05-05 17:38 | 54.41014 | 11.10848 | 24793 ft | 402 kts | 213° |
| 2026-05-05 17:38 | 54.38602 | 11.08466 | 24230 ft | 399 kts | 213° |
| 2026-05-05 17:38 | 54.36216 | 11.06113 | 23673 ft | 395 kts | 213° |
| 2026-05-05 17:38 | 54.33877 | 11.03803 | 23115 ft | 391 kts | 214° |
| 2026-05-05 17:39 | 54.31649 | 11.01179 | 22547 ft | 385 kts | 221° |
| 2026-05-05 17:39 | 54.29671 | 10.98138 | 21993 ft | 380 kts | 228° |
| 2026-05-05 17:39 | 54.27954 | 10.94758 | 21458 ft | 375 kts | 233° |
| 2026-05-05 17:39 | 54.26361 | 10.91265 | 20904 ft | 373 kts | 234° |
| 2026-05-05 17:40 | 54.24797 | 10.87787 | 20360 ft | 371 kts | 234° |
| 2026-05-05 17:40 | 54.23251 | 10.84351 | 19820 ft | 368 kts | 234° |
| 2026-05-05 17:40 | 54.21678 | 10.80864 | 19273 ft | 366 kts | 234° |
| 2026-05-05 17:40 | 54.20156 | 10.77498 | 18739 ft | 364 kts | 234° |
| 2026-05-05 17:41 | 54.18617 | 10.74102 | 18199 ft | 362 kts | 234° |
| 2026-05-05 17:41 | 54.17065 | 10.70683 | 17648 ft | 361 kts | 234° |
| 2026-05-05 17:41 | 54.15549 | 10.67349 | 17108 ft | 359 kts | 234° |
| 2026-05-05 17:41 | 54.14029 | 10.64011 | 16555 ft | 358 kts | 234° |
| 2026-05-05 17:42 | 54.12499 | 10.60652 | 16018 ft | 357 kts | 234° |
| 2026-05-05 17:42 | 54.10977 | 10.57319 | 15462 ft | 356 kts | 234° |
| 2026-05-05 17:42 | 54.09466 | 10.54017 | 14911 ft | 355 kts | 234° |
| 2026-05-05 17:42 | 54.07968 | 10.50746 | 14368 ft | 354 kts | 234° |
| 2026-05-05 17:43 | 54.06458 | 10.47449 | 13831 ft | 352 kts | 234° |
| 2026-05-05 17:43 | 54.04962 | 10.44189 | 13315 ft | 350 kts | 234° |
| 2026-05-05 17:43 | 54.03470 | 10.40943 | 12778 ft | 349 kts | 234° |
| 2026-05-05 17:43 | 54.01975 | 10.37692 | 12392 ft | 350 kts | 234° |
| 2026-05-05 17:44 | 54.00483 | 10.34443 | 12146 ft | 351 kts | 233° |
| 2026-05-05 17:44 | 53.98999 | 10.31206 | 11901 ft | 350 kts | 233° |
| 2026-05-05 17:44 | 53.97494 | 10.27933 | 11655 ft | 349 kts | 233° |
| 2026-05-05 17:44 | 53.96011 | 10.24706 | 11400 ft | 348 kts | 233° |
| 2026-05-05 17:45 | 53.94520 | 10.21464 | 11158 ft | 348 kts | 233° |
| 2026-05-05 17:45 | 53.93022 | 10.18212 | 10907 ft | 349 kts | 233° |
| 2026-05-05 17:45 | 53.91316 | 10.15347 | 10640 ft | 351 kts | 217° |
| 2026-05-05 17:45 | 53.89083 | 10.13667 | 10388 ft | 355 kts | 195° |
| 2026-05-05 17:46 | 53.86637 | 10.13175 | 10149 ft | 356 kts | 186° |
| 2026-05-05 17:46 | 53.84156 | 10.12977 | 9892 ft | 355 kts | 184° |
| 2026-05-05 17:46 | 53.81716 | 10.12819 | 9636 ft | 355 kts | 184° |
| 2026-05-05 17:46 | 53.79240 | 10.12653 | 9367 ft | 354 kts | 184° |
| 2026-05-05 17:47 | 53.76779 | 10.12476 | 9055 ft | 353 kts | 184° |
| 2026-05-05 17:47 | 53.74344 | 10.12288 | 8804 ft | 352 kts | 184° |
| 2026-05-05 17:47 | 53.71901 | 10.12096 | 8552 ft | 350 kts | 184° |
| 2026-05-05 17:47 | 53.69492 | 10.11896 | 8304 ft | 349 kts | 184° |
| 2026-05-05 17:48 | 53.67072 | 10.11686 | 8053 ft | 349 kts | 184° |
| 2026-05-05 17:48 | 53.64652 | 10.11466 | 7802 ft | 348 kts | 184° |
| 2026-05-05 17:48 | 53.62250 | 10.11236 | 7552 ft | 347 kts | 184° |
| 2026-05-05 17:48 | 53.59827 | 10.10998 | 7299 ft | 346 kts | 184° |
| 2026-05-05 17:49 | 53.57462 | 10.10575 | 7038 ft | 344 kts | 194° |
| 2026-05-05 17:49 | 53.55302 | 10.08932 | 6777 ft | 336 kts | 216° |
| 2026-05-05 17:49 | 53.53701 | 10.06245 | 6605 ft | 320 kts | 231° |
| 2026-05-05 17:49 | 53.52363 | 10.03363 | 6451 ft | 306 kts | 233° |
| 2026-05-05 17:50 | 53.51113 | 10.00576 | 6295 ft | 294 kts | 234° |
| 2026-05-05 17:50 | 53.49909 | 9.97878 | 6115 ft | 283 kts | 234° |
| 2026-05-05 17:50 | 53.48748 | 9.95276 | 5862 ft | 276 kts | 234° |
| 2026-05-05 17:50 | 53.47604 | 9.92714 | 5609 ft | 274 kts | 234° |
| 2026-05-05 17:51 | 53.46469 | 9.90173 | 5359 ft | 275 kts | 234° |
| 2026-05-05 17:51 | 53.45319 | 9.87594 | 5106 ft | 275 kts | 234° |
| 2026-05-05 17:51 | 53.44183 | 9.85050 | 4855 ft | 275 kts | 234° |
| 2026-05-05 17:51 | 53.43032 | 9.82472 | 4603 ft | 275 kts | 234° |
| 2026-05-05 17:52 | 53.41898 | 9.79928 | 4353 ft | 275 kts | 234° |
| 2026-05-05 17:52 | 53.40745 | 9.77332 | 4116 ft | 275 kts | 236° |
| 2026-05-05 17:52 | 53.39968 | 9.74468 | 3857 ft | 271 kts | 262° |
| 2026-05-05 17:52 | 53.40058 | 9.71405 | 3584 ft | 262 kts | 291° |
| 2026-05-05 17:53 | 53.40960 | 9.68908 | 3342 ft | 248 kts | 320° |
| 2026-05-05 17:53 | 53.42411 | 9.67566 | 3079 ft | 235 kts | 351° |
| 2026-05-05 17:53 | 53.43969 | 9.67700 | 2960 ft | 217 kts | 18° |
| 2026-05-05 17:53 | 53.45346 | 9.68519 | 2962 ft | 208 kts | 23° |
| 2026-05-05 17:54 | 53.46681 | 9.69434 | 2965 ft | 208 kts | 24° |
| 2026-05-05 17:54 | 53.48025 | 9.70382 | 2968 ft | 207 kts | 27° |
| 2026-05-05 17:54 | 53.49253 | 9.71642 | 2966 ft | 206 kts | 39° |
| 2026-05-05 17:54 | 53.50303 | 9.73277 | 2970 ft | 207 kts | 46° |
| 2026-05-05 17:55 | 53.51271 | 9.75016 | 2966 ft | 198 kts | 48° |
| 2026-05-05 17:55 | 53.52117 | 9.76652 | 3043 ft | 177 kts | 49° |
| 2026-05-05 17:55 | 53.52892 | 9.78205 | 2844 ft | 173 kts | 50° |
| 2026-05-05 17:55 | 53.53649 | 9.79744 | 2633 ft | 171 kts | 50° |
| 2026-05-05 17:56 | 53.54409 | 9.81296 | 2403 ft | 170 kts | 50° |
| 2026-05-05 17:56 | 53.55152 | 9.82813 | 2177 ft | 169 kts | 50° |
| 2026-05-05 17:56 | 53.55899 | 9.84334 | 1950 ft | 168 kts | 50° |
| 2026-05-05 17:56 | 53.56640 | 9.85842 | 1728 ft | 166 kts | 50° |
| 2026-05-05 17:57 | 53.57341 | 9.87266 | 1498 ft | 152 kts | 50° |
| 2026-05-05 17:57 | 53.57974 | 9.88554 | 1318 ft | 135 kts | 50° |
| 2026-05-05 17:57 | 53.58559 | 9.89740 | 1130 ft | 130 kts | 51° |
| 2026-05-05 17:57 | 53.59137 | 9.90897 | 956 ft | 129 kts | 50° |
| 2026-05-05 17:58 | 53.59698 | 9.92059 | 774 ft | 128 kts | 51° |
| 2026-05-05 17:58 | 53.60266 | 9.93215 | 638 ft | 128 kts | 50° |
| 2026-05-05 17:58 | 53.60841 | 9.94351 | 451 ft | 128 kts | 51° |
| 2026-05-05 17:58 | 53.61402 | 9.95512 | 258 ft | 126 kts | 52° |
| 2026-05-05 17:59 | 53.61961 | 9.96648 | 118 ft | 126 kts | 50° |
| 2026-05-05 17:59 | 53.62497 | 9.97730 | 62 ft | 108 kts | 51° |
| 2026-05-05 17:59 | 53.62873 | 9.98490 | 62 ft | 60 kts | 51° |
| 2026-05-05 17:59 | 53.63106 | 9.98966 | 62 ft | 49 kts | 50° |
| 2026-05-05 18:00 | 53.63285 | 9.99339 | 62 ft | 23 kts | 66° |
| 2026-05-05 18:00 | 53.63290 | 9.99528 | 62 ft | 6 kts | 99° |
| 2026-05-05 18:00 | 53.63288 | 9.99554 | 62 ft | 0 kts | 99° |
| 2026-05-05 18:00 | 53.63286 | 9.99570 | 62 ft | 1 kts | 99° |
| 2026-05-05 18:01 | 53.63283 | 9.99599 | 62 ft | 3 kts | 99° |
| 2026-05-05 18:01 | 53.63279 | 9.99643 | 62 ft | 4 kts | 99° |
| 2026-05-05 18:01 | 53.63274 | 9.99701 | 62 ft | 5 kts | 98° |
| 2026-05-05 18:01 | 53.63281 | 9.99770 | 62 ft | 6 kts | 63° |
| 2026-05-05 18:02 | 53.63312 | 9.99834 | 62 ft | 7 kts | 47° |
| 2026-05-05 18:02 | 53.63351 | 9.99906 | 62 ft | 8 kts | 49° |
| 2026-05-05 18:02 | 53.63391 | 9.99988 | 62 ft | 9 kts | 51° |
| 2026-05-05 18:02 | 53.63433 | 10.00075 | 62 ft | 8 kts | 51° |
| 2026-05-05 18:03 | 53.63469 | 10.00148 | 62 ft | 8 kts | 50° |
| 2026-05-05 18:03 | 53.63463 | 10.00215 | 62 ft | 7 kts | 157° |
| 2026-05-05 18:03 | 53.63406 | 10.00223 | 62 ft | 8 kts | 177° |
| 2026-05-05 18:03 | 53.63343 | 10.00230 | 62 ft | 9 kts | 175° |
| 2026-05-05 18:04 | 53.63270 | 10.00240 | 62 ft | 10 kts | 176° |
| 2026-05-05 18:04 | 53.63214 | 10.00247 | 62 ft | 1 kts | 176° |
| 2026-05-05 18:04 | 53.63198 | 10.00249 | 62 ft | 3 kts | 176° |
| 2026-05-05 18:04 | 53.63171 | 10.00252 | 62 ft | 4 kts | 175° |
| 2026-05-05 18:05 | 53.63136 | 10.00256 | 62 ft | 5 kts | 175° |
| 2026-05-05 18:05 | 53.63110 | 10.00288 | 62 ft | 5 kts | 102° |
| 2026-05-05 18:05 | 53.63112 | 10.00338 | 62 ft | 2 kts | 86° |
| 2026-05-05 18:05 | 53.63112 | 10.00358 | 62 ft | 0 kts | 86° |
| 2026-05-05 18:06 | 53.63112 | 10.00363 | 62 ft | 0 kts | 90° |
| 2026-05-05 18:06 | 53.63112 | 10.00367 | 62 ft | 0 kts | 90° |
| 2026-05-05 18:06 | 53.63112 | 10.00366 | 62 ft | 0 kts | 90° |